createdAt,value
2019-03-28T00:01:21.914Z,9.30
2019-03-28T00:03:50.790Z,10.85
2019-03-28T00:06:19.702Z,8.55
2019-03-28T00:08:48.579Z,7.65
2019-03-28T00:11:17.449Z,10.23
2019-03-28T00:13:46.357Z,13.15
2019-03-28T00:16:15.241Z,14.60
2019-03-28T00:18:44.113Z,16.35
2019-03-28T00:21:13.017Z,17.70
2019-03-28T00:23:49.373Z,15.43
2019-03-28T00:26:29.606Z,10.78
2019-03-28T00:28:48.811Z,11.83
2019-03-28T00:31:17.683Z,12.07
2019-03-28T00:33:46.557Z,11.53
2019-03-28T00:36:15.444Z,12.13
2019-03-28T00:38:44.354Z,12.70
2019-03-28T00:41:13.220Z,12.65
2019-03-28T00:43:42.101Z,11.80
2019-03-28T00:46:10.973Z,10.35
2019-03-28T00:48:39.845Z,11.88
2019-03-28T00:51:08.727Z,9.33
2019-03-28T00:53:37.597Z,9.30
2019-03-28T00:56:06.568Z,10.38
2019-03-28T00:58:35.446Z,10.63
2019-03-28T01:01:05.117Z,9.23
2019-03-28T01:03:34.097Z,7.92
2019-03-28T01:06:02.979Z,9.15
2019-03-28T01:08:31.858Z,8.38
2019-03-28T01:11:00.720Z,9.60
2019-03-28T01:13:29.593Z,7.28
2019-03-28T01:15:58.473Z,9.00
2019-03-28T01:18:27.341Z,7.60
2019-03-28T01:20:56.209Z,5.78
2019-03-28T01:23:25.076Z,6.35
2019-03-28T01:25:53.950Z,5.72
2019-03-28T01:28:22.826Z,9.00
2019-03-28T01:30:51.692Z,8.50
2019-03-28T01:33:20.565Z,8.33
2019-03-28T01:35:49.442Z,6.58
2019-03-28T01:38:18.315Z,7.05
2019-03-28T01:40:47.186Z,7.62
2019-03-28T01:43:16.061Z,8.20
2019-03-28T01:45:44.936Z,8.73
2019-03-28T01:48:13.805Z,10.10
2019-03-28T01:50:42.688Z,8.75
2019-03-28T01:53:12.277Z,8.00
2019-03-28T01:55:41.372Z,7.50
2019-03-28T01:58:10.242Z,7.92
2019-03-28T02:00:39.185Z,9.00
2019-03-28T02:03:08.056Z,8.50
2019-03-28T02:05:36.934Z,7.70
2019-03-28T02:08:05.831Z,5.80
2019-03-28T02:10:34.693Z,5.50
2019-03-28T02:13:03.569Z,6.35
2019-03-28T02:15:32.473Z,5.70
2019-03-28T02:18:01.337Z,7.12
2019-03-28T02:20:30.225Z,6.60
2019-03-28T02:22:59.122Z,7.00
2019-03-28T02:25:27.989Z,7.37
2019-03-28T02:27:56.855Z,8.20
2019-03-28T02:30:31.138Z,8.00
2019-03-28T02:33:00.219Z,8.83
2019-03-28T02:35:29.269Z,9.48
2019-03-28T02:37:58.470Z,8.68
2019-03-28T02:40:27.346Z,8.60
2019-03-28T02:42:56.210Z,8.68
2019-03-28T02:45:25.131Z,7.78
2019-03-28T02:47:54.881Z,6.42
2019-03-28T02:50:23.754Z,6.47
2019-03-28T02:52:52.674Z,6.45
2019-03-28T02:55:21.541Z,5.50
2019-03-28T02:57:50.410Z,5.65
2019-03-28T03:00:20.741Z,6.80
2019-03-28T03:02:49.844Z,7.05
2019-03-28T03:05:18.727Z,6.62
2019-03-28T03:07:47.632Z,6.62
2019-03-28T03:10:17.554Z,6.55
2019-03-28T03:12:46.671Z,6.60
2019-03-28T03:15:15.771Z,7.17
2019-03-28T03:17:44.638Z,6.62
2019-03-28T03:20:13.712Z,6.40
2019-03-28T03:22:42.598Z,7.33
2019-03-28T03:25:12.792Z,7.20
2019-03-28T03:27:56.946Z,8.78
2019-03-28T03:30:12.279Z,8.38
2019-03-28T03:32:41.150Z,7.42
2019-03-28T03:35:10.218Z,8.08
2019-03-28T03:37:39.122Z,8.55
2019-03-28T03:40:09.691Z,8.70
2019-03-28T03:42:38.568Z,8.43
2019-03-28T03:45:09.623Z,10.55
2019-03-28T03:47:38.697Z,10.82
2019-03-28T03:50:09.127Z,9.35
2019-03-28T03:52:38.029Z,9.93
2019-03-28T03:55:07.903Z,11.28
2019-03-28T03:57:36.771Z,12.55
2019-03-28T04:00:07.548Z,16.50
2019-03-28T04:02:36.684Z,17.85
2019-03-28T04:05:06.813Z,30.10
2019-03-28T04:07:35.727Z,31.35
2019-03-28T04:10:06.285Z,11.65
2019-03-28T04:12:35.142Z,11.40
2019-03-28T04:15:04.445Z,12.37
2019-03-28T04:17:33.336Z,12.23
2019-03-28T04:20:02.255Z,15.35
2019-03-28T04:22:31.247Z,28.02
2019-03-28T04:25:00.238Z,29.77
2019-03-28T04:27:29.297Z,18.48
2019-03-28T04:29:58.245Z,14.65
2019-03-28T04:32:27.122Z,12.60
2019-03-28T04:34:55.999Z,14.15
2019-03-28T04:37:24.905Z,13.65
2019-03-28T04:39:53.777Z,13.48
2019-03-28T04:42:22.658Z,12.37
2019-03-28T04:44:51.554Z,13.32
2019-03-28T04:47:20.427Z,15.23
2019-03-28T04:49:49.301Z,17.50
2019-03-28T04:52:19.418Z,16.62
2019-03-28T04:54:48.501Z,13.75
2019-03-28T04:57:17.387Z,12.25
2019-03-28T04:59:46.328Z,12.13
2019-03-28T05:02:15.209Z,10.45
2019-03-28T05:04:44.065Z,7.62
2019-03-28T05:07:12.962Z,7.72
2019-03-28T05:09:41.854Z,8.43
2019-03-28T05:12:10.737Z,11.78
2019-03-28T05:14:40.368Z,21.05
2019-03-28T05:17:09.340Z,10.80
2019-03-28T05:19:38.220Z,9.63
2019-03-28T05:22:07.122Z,12.18
2019-03-28T05:24:35.996Z,14.75
2019-03-28T05:27:04.876Z,13.03
2019-03-28T05:29:33.778Z,9.93
2019-03-28T05:32:02.641Z,9.05
2019-03-28T05:34:31.573Z,6.90
2019-03-28T05:37:00.444Z,8.30
2019-03-28T05:39:29.314Z,8.43
2019-03-28T05:41:58.182Z,12.10
2019-03-28T05:44:27.062Z,10.15
2019-03-28T05:46:55.971Z,10.82
2019-03-28T05:49:24.844Z,8.55
2019-03-28T05:51:53.712Z,9.80
2019-03-28T05:54:23.500Z,10.68
2019-03-28T05:56:52.466Z,11.18
2019-03-28T05:59:24.596Z,11.90
2019-03-28T06:01:53.470Z,12.20
2019-03-28T06:04:22.349Z,10.88
2019-03-28T06:06:54.165Z,12.98
2019-03-28T06:09:23.046Z,10.58
2019-03-28T06:11:53.016Z,17.37
2019-03-28T06:14:21.994Z,15.58
2019-03-28T06:16:50.876Z,16.82
2019-03-28T06:19:19.777Z,16.50
2019-03-28T06:21:48.646Z,17.60
2019-03-28T06:24:17.525Z,15.95
2019-03-28T06:26:46.436Z,14.40
2019-03-28T06:29:23.625Z,12.58
2019-03-28T06:31:55.115Z,12.20
2019-03-28T06:34:17.407Z,21.27
2019-03-28T06:36:46.269Z,15.45
2019-03-28T06:39:15.145Z,12.00
2019-03-28T06:41:44.428Z,11.00
2019-03-28T06:44:13.382Z,11.75
2019-03-28T06:46:42.264Z,12.05
2019-03-28T06:49:11.179Z,14.53
2019-03-28T06:51:40.078Z,13.83
2019-03-28T06:54:09.045Z,14.60
2019-03-28T06:56:38.818Z,13.98
2019-03-28T06:59:07.685Z,14.75
2019-03-28T07:01:36.561Z,20.30
2019-03-28T07:04:05.461Z,20.60
2019-03-28T07:06:34.333Z,17.20
2019-03-28T07:09:04.344Z,18.62
2019-03-28T07:11:33.202Z,22.85
2019-03-28T07:14:02.446Z,18.50
2019-03-28T07:16:31.642Z,19.65
2019-03-28T07:19:00.511Z,20.12
2019-03-28T07:21:29.408Z,17.77
2019-03-28T07:23:58.276Z,13.20
2019-03-28T07:26:27.154Z,12.85
2019-03-28T07:28:56.056Z,12.18
2019-03-28T07:31:24.937Z,14.15
2019-03-28T07:33:53.817Z,13.58
2019-03-28T07:36:22.700Z,15.50
2019-03-28T07:38:51.589Z,16.30
2019-03-28T07:41:20.545Z,18.10
2019-03-28T07:43:49.425Z,17.32
2019-03-28T07:46:18.318Z,14.85
2019-03-28T07:48:47.194Z,13.93
2019-03-28T07:51:16.070Z,32.98
2019-03-28T07:53:45.023Z,19.00
2019-03-28T07:56:13.897Z,15.10
2019-03-28T07:58:44.268Z,13.80
2019-03-28T08:01:13.206Z,10.35
2019-03-28T08:03:42.097Z,12.45
2019-03-28T08:06:12.755Z,14.25
2019-03-28T08:08:44.078Z,13.60
2019-03-28T08:11:12.061Z,13.10
2019-03-28T08:13:40.941Z,14.10
2019-03-28T08:16:09.833Z,14.47
2019-03-28T08:18:38.729Z,12.85
2019-03-28T08:21:07.623Z,12.78
2019-03-28T08:23:36.495Z,10.90
2019-03-28T08:26:05.442Z,10.50
2019-03-28T08:28:34.329Z,10.13
2019-03-28T08:31:03.328Z,10.25
2019-03-28T08:33:32.900Z,9.98
2019-03-28T08:36:03.159Z,9.15
2019-03-28T08:38:33.939Z,8.30
2019-03-28T08:41:02.816Z,8.18
2019-03-28T08:43:31.686Z,14.23
2019-03-28T08:46:00.581Z,8.83
2019-03-28T08:48:29.461Z,8.53
2019-03-28T08:50:58.347Z,14.00
2019-03-28T08:53:27.221Z,8.85
2019-03-28T08:55:56.121Z,9.73
2019-03-28T08:58:25.121Z,7.75
2019-03-28T09:00:55.002Z,8.63
2019-03-28T09:03:23.875Z,8.35
2019-03-28T09:05:52.744Z,8.70
2019-03-28T09:08:21.613Z,7.10
2019-03-28T09:10:50.526Z,7.50
2019-03-28T09:13:21.407Z,8.18
2019-03-28T09:15:50.007Z,8.63
2019-03-28T09:18:18.884Z,8.65
2019-03-28T09:20:47.794Z,8.53
2019-03-28T09:23:16.693Z,8.18
2019-03-28T09:25:45.567Z,9.65
2019-03-28T09:28:14.464Z,6.80
2019-03-28T09:30:48.916Z,7.67
2019-03-28T09:33:14.062Z,6.78
2019-03-28T09:35:43.054Z,7.40
2019-03-28T09:38:12.137Z,6.03
2019-03-28T09:40:41.020Z,6.17
2019-03-28T09:43:09.889Z,6.15
2019-03-28T09:45:38.814Z,6.33
2019-03-28T09:48:11.137Z,5.80
2019-03-28T09:50:38.249Z,6.42
2019-03-28T09:53:07.113Z,6.12
2019-03-28T09:55:36.003Z,6.80
2019-03-28T09:58:04.969Z,6.28
2019-03-28T10:00:34.612Z,4.75
2019-03-28T10:03:04.479Z,4.80
2019-03-28T10:05:33.352Z,6.22
2019-03-28T10:08:02.258Z,4.42
2019-03-28T10:10:48.685Z,4.78
2019-03-28T10:13:24.287Z,4.50
2019-03-28T10:15:57.351Z,4.15
2019-03-28T10:18:29.734Z,4.53
2019-03-28T10:21:09.596Z,4.90
2019-03-28T10:23:54.168Z,4.25
2019-03-28T10:26:39.522Z,5.10
2019-03-28T10:29:16.111Z,7.08
2019-03-28T10:31:52.855Z,4.83
2019-03-28T10:34:37.408Z,5.10
2019-03-28T10:37:25.468Z,5.37
2019-03-28T10:39:56.375Z,5.53
2019-03-28T10:42:27.582Z,5.12
2019-03-28T10:44:56.470Z,4.80
2019-03-28T10:47:28.683Z,5.42
2019-03-28T10:49:57.566Z,5.22
2019-03-28T10:52:26.518Z,5.25
2019-03-28T10:54:55.386Z,4.03
2019-03-28T10:57:29.764Z,5.10
2019-03-28T10:59:54.783Z,5.00
2019-03-28T11:02:23.662Z,5.03
2019-03-28T11:04:53.607Z,5.03
2019-03-28T11:07:22.469Z,5.35
2019-03-28T11:09:51.349Z,4.60
2019-03-28T11:12:20.247Z,4.75
2019-03-28T11:14:49.113Z,4.47
2019-03-28T11:17:18.007Z,4.22
2019-03-28T11:19:46.893Z,4.42
2019-03-28T11:22:15.768Z,3.70
2019-03-28T11:24:46.358Z,4.67
2019-03-28T11:27:15.188Z,3.60
2019-03-28T11:29:44.159Z,4.62
2019-03-28T11:32:13.034Z,3.87
2019-03-28T11:34:41.913Z,4.10
2019-03-28T11:37:25.015Z,5.25
2019-03-28T11:39:41.317Z,5.47
2019-03-28T11:42:10.215Z,6.10
2019-03-28T11:44:39.106Z,7.37
2019-03-28T11:47:07.989Z,6.08
2019-03-28T11:49:36.888Z,5.00
2019-03-28T11:52:05.770Z,10.68
2019-03-28T11:54:34.677Z,7.72
2019-03-28T11:57:03.570Z,6.08
2019-03-28T11:59:33.158Z,6.78
2019-03-28T12:02:18.653Z,5.35
2019-03-28T12:04:32.745Z,7.87
2019-03-28T12:07:02.706Z,6.30
2019-03-28T12:09:31.630Z,5.55
2019-03-28T12:12:00.523Z,30.30
2019-03-28T12:14:29.642Z,8.30
2019-03-28T12:16:58.566Z,18.52
2019-03-28T12:19:27.469Z,3.75
2019-03-28T12:21:56.358Z,3.33
2019-03-28T12:24:25.219Z,1.80
2019-03-28T12:26:54.093Z,1.30
2019-03-28T12:29:23.797Z,2.50
2019-03-28T12:31:52.992Z,3.05
2019-03-28T12:34:21.869Z,4.17
2019-03-28T12:36:50.854Z,7.58
2019-03-28T12:39:20.847Z,1.80
2019-03-28T12:41:49.851Z,1.90
2019-03-28T12:44:18.829Z,1.62
2019-03-28T12:46:47.685Z,3.55
2019-03-28T12:49:16.594Z,3.33
2019-03-28T12:51:45.461Z,6.85
2019-03-28T12:54:14.341Z,5.65
2019-03-28T12:56:43.274Z,2.08
2019-03-28T12:59:12.174Z,6.10
2019-03-28T13:01:41.049Z,4.95
2019-03-28T13:04:09.933Z,5.55
2019-03-28T13:06:38.913Z,7.12
2019-03-28T13:09:10.238Z,4.42
2019-03-28T13:11:39.113Z,4.08
2019-03-28T13:14:07.993Z,2.45
2019-03-28T13:16:36.875Z,3.62
2019-03-28T13:19:05.773Z,9.08
2019-03-28T13:21:34.677Z,1.95
2019-03-28T13:24:03.554Z,2.02
2019-03-28T13:26:32.437Z,1.95
2019-03-28T13:29:01.361Z,1.20
2019-03-28T13:31:30.291Z,4.90
2019-03-28T13:33:59.158Z,3.65
2019-03-28T13:36:28.024Z,1.72
2019-03-28T13:38:56.875Z,1.25
2019-03-28T13:41:25.736Z,1.45
2019-03-28T13:43:54.599Z,1.50
2019-03-28T13:46:23.488Z,2.83
2019-03-28T13:48:52.339Z,1.50
2019-03-28T13:51:21.216Z,1.70
2019-03-28T13:53:52.062Z,1.77
2019-03-28T13:56:20.596Z,1.60
2019-03-28T13:58:49.482Z,2.47
2019-03-28T14:01:18.403Z,2.40
2019-03-28T14:03:47.225Z,1.62
2019-03-28T14:06:16.084Z,1.47
2019-03-28T14:08:44.945Z,1.30
2019-03-28T14:11:13.872Z,1.45
2019-03-28T14:13:42.728Z,1.40
2019-03-28T14:16:11.583Z,1.45
2019-03-28T14:18:42.068Z,1.20
2019-03-28T14:21:10.928Z,1.32
2019-03-28T14:23:39.812Z,1.72
2019-03-28T14:26:08.680Z,5.17
2019-03-28T14:28:37.553Z,5.30
2019-03-28T14:31:07.516Z,22.58
2019-03-28T14:33:37.009Z,44.67
2019-03-28T14:36:06.073Z,14.47
2019-03-28T14:38:37.265Z,7.70
2019-03-28T14:41:05.437Z,3.15
2019-03-28T14:43:34.296Z,8.08
2019-03-28T14:46:03.231Z,4.58
2019-03-28T14:48:36.216Z,3.40
2019-03-28T14:51:05.164Z,5.00
2019-03-28T14:53:34.008Z,4.00
2019-03-28T14:56:04.100Z,5.62
2019-03-28T14:58:34.664Z,18.90
2019-03-28T15:01:04.151Z,10.88
2019-03-28T15:03:32.996Z,7.00
2019-03-28T15:06:01.862Z,2.50
2019-03-28T15:08:30.730Z,6.92
2019-03-28T15:11:01.580Z,2.20
2019-03-28T15:13:30.696Z,5.25
2019-03-28T15:16:01.989Z,3.33
2019-03-28T15:18:30.849Z,3.67
2019-03-28T15:20:59.769Z,3.33
2019-03-28T15:23:28.618Z,3.85
2019-03-28T15:25:57.503Z,5.33
2019-03-28T15:28:26.377Z,6.60
2019-03-28T15:30:55.718Z,4.47
2019-03-28T15:33:38.307Z,7.58
2019-03-28T15:35:55.294Z,4.33
2019-03-28T15:38:24.178Z,3.08
2019-03-28T15:40:53.024Z,4.53
2019-03-28T15:43:21.880Z,6.00
2019-03-28T15:45:50.765Z,9.70
2019-03-28T15:48:19.700Z,4.00
2019-03-28T15:50:48.708Z,4.00
2019-03-28T15:53:17.664Z,5.70
2019-03-28T15:55:46.532Z,4.70
2019-03-28T15:58:23.098Z,4.33
2019-03-28T16:00:45.922Z,4.03
2019-03-28T16:03:14.793Z,4.17
2019-03-28T16:05:57.171Z,5.35
2019-03-28T16:08:14.308Z,3.45
2019-03-28T16:10:43.182Z,16.27
2019-03-28T16:13:13.788Z,18.70
2019-03-28T16:15:42.689Z,16.95
2019-03-28T16:18:11.541Z,16.67
2019-03-28T16:20:40.397Z,6.45
2019-03-28T16:23:09.271Z,7.30
2019-03-28T16:25:38.165Z,6.28
2019-03-28T16:28:07.100Z,5.95
2019-03-28T16:30:37.440Z,5.47
2019-03-28T16:33:06.710Z,4.45
2019-03-28T16:35:35.556Z,4.50
2019-03-28T16:38:04.432Z,5.50
2019-03-28T16:40:33.315Z,5.97
2019-03-28T16:43:02.157Z,6.17
2019-03-28T16:45:31.008Z,8.15
2019-03-28T16:47:59.861Z,4.75
2019-03-28T16:50:28.739Z,4.00
2019-03-28T16:52:57.625Z,3.83
2019-03-28T16:55:27.572Z,4.72
2019-03-28T16:57:58.053Z,6.75
2019-03-28T17:00:35.096Z,6.97
2019-03-28T17:03:04.760Z,9.10
2019-03-28T17:05:34.797Z,6.83
2019-03-28T17:08:04.897Z,5.65
2019-03-28T17:10:42.290Z,5.80
2019-03-28T17:13:12.140Z,4.30
2019-03-28T17:15:41.016Z,4.47
2019-03-28T17:18:09.880Z,3.15
2019-03-28T17:20:38.748Z,4.17
2019-03-28T17:23:07.633Z,5.00
2019-03-28T17:25:36.491Z,8.58
2019-03-28T17:28:05.352Z,3.58
2019-03-28T17:30:34.225Z,4.78
2019-03-28T17:33:06.224Z,9.38
2019-03-28T17:35:35.124Z,6.85
2019-03-28T17:38:03.998Z,5.22
2019-03-28T17:40:32.840Z,6.83
2019-03-28T17:43:01.720Z,4.83
2019-03-28T17:45:30.572Z,5.03
2019-03-28T17:47:59.473Z,5.25
2019-03-28T17:50:28.328Z,5.72
2019-03-28T17:52:57.275Z,9.73
2019-03-28T17:55:26.128Z,8.78
2019-03-28T17:57:54.968Z,8.80
2019-03-28T18:00:28.095Z,10.28
2019-03-28T18:03:08.575Z,12.75
2019-03-28T18:05:27.779Z,6.80
2019-03-28T18:07:56.640Z,6.67
2019-03-28T18:10:25.489Z,10.63
2019-03-28T18:12:54.397Z,9.33
2019-03-28T18:15:23.348Z,18.52
2019-03-28T18:17:52.196Z,12.55
2019-03-28T18:20:21.105Z,13.72
2019-03-28T18:22:50.021Z,11.10
2019-03-28T18:25:18.956Z,10.45
2019-03-28T18:27:47.913Z,9.58
2019-03-28T18:30:17.248Z,10.72
2019-03-28T18:32:46.121Z,12.60
2019-03-28T18:35:15.188Z,11.75
2019-03-28T18:37:44.750Z,11.95
2019-03-28T18:40:14.130Z,13.50
2019-03-28T18:42:42.991Z,8.95
2019-03-28T18:45:12.779Z,9.20
2019-03-28T18:47:41.820Z,7.10
2019-03-28T18:50:11.149Z,6.20
2019-03-28T18:52:40.016Z,5.47
2019-03-28T18:55:09.165Z,8.75
2019-03-28T18:57:38.068Z,4.58
2019-03-28T19:00:08.744Z,3.60
2019-03-28T19:02:37.633Z,5.53
2019-03-28T19:05:18.963Z,4.92
2019-03-28T19:07:38.288Z,4.47
2019-03-28T19:10:07.842Z,7.45
2019-03-28T19:12:36.732Z,7.35
2019-03-28T19:15:08.052Z,10.65
2019-03-28T19:17:37.304Z,16.25
2019-03-28T19:20:07.653Z,4.90
2019-03-28T19:22:37.033Z,3.52
2019-03-28T19:25:08.764Z,2.00
2019-03-28T19:27:38.264Z,5.05
2019-03-28T19:30:08.258Z,3.72
2019-03-28T19:32:37.171Z,2.52
2019-03-28T19:35:08.114Z,2.90
2019-03-28T19:37:38.210Z,1.92
2019-03-28T19:40:10.587Z,2.08
2019-03-28T19:42:40.243Z,2.00
2019-03-28T19:45:09.363Z,2.22
2019-03-28T19:47:38.600Z,6.40
2019-03-28T19:50:10.617Z,2.85
2019-03-28T19:52:39.789Z,2.35
2019-03-28T19:55:10.555Z,1.75
2019-03-28T19:57:39.399Z,3.55
2019-03-28T20:00:08.570Z,2.52
2019-03-28T20:02:37.420Z,2.90
2019-03-28T20:05:07.390Z,3.27
2019-03-28T20:07:36.278Z,8.28
2019-03-28T20:10:16.438Z,3.15
2019-03-28T20:12:38.277Z,4.37
2019-03-28T20:15:08.906Z,2.20
2019-03-28T20:17:37.776Z,2.42
2019-03-28T20:20:08.411Z,2.55
2019-03-28T20:22:37.276Z,2.87
2019-03-28T20:25:07.501Z,3.27
2019-03-28T20:27:36.349Z,3.10
2019-03-28T20:30:07.035Z,3.90
2019-03-28T20:32:35.886Z,3.45
2019-03-28T20:35:05.330Z,3.00
2019-03-28T20:37:34.714Z,5.17
2019-03-28T20:40:04.053Z,3.00
2019-03-28T20:42:32.924Z,3.33
2019-03-28T20:45:01.972Z,4.72
2019-03-28T20:47:45.479Z,6.67
2019-03-28T20:50:15.409Z,4.75
2019-03-28T20:52:44.823Z,11.33
2019-03-28T20:55:14.345Z,5.37
2019-03-28T20:57:43.366Z,2.55
2019-03-28T21:00:13.245Z,3.87
2019-03-28T21:02:42.207Z,4.25
2019-03-28T21:05:30.621Z,4.08
2019-03-28T21:07:59.572Z,4.55
2019-03-28T21:10:33.028Z,3.55
2019-03-28T21:13:00.957Z,2.70
2019-03-28T21:15:29.860Z,3.27
2019-03-28T21:18:00.885Z,2.67
2019-03-28T21:20:30.072Z,2.47
2019-03-28T21:22:58.922Z,2.17
2019-03-28T21:25:29.619Z,1.60
2019-03-28T21:27:58.851Z,2.92
2019-03-28T21:30:27.990Z,2.27
2019-03-28T21:32:57.907Z,2.02
2019-03-28T21:35:27.129Z,2.10
2019-03-28T21:37:55.989Z,2.65
2019-03-28T21:40:24.834Z,2.20
2019-03-28T21:42:53.689Z,2.87
2019-03-28T21:45:22.561Z,2.40
2019-03-28T21:47:51.400Z,1.90
2019-03-28T21:50:20.250Z,2.47
2019-03-28T21:52:49.092Z,2.83
2019-03-28T21:55:18.236Z,2.30
2019-03-28T21:57:47.820Z,1.85
2019-03-28T22:00:17.868Z,2.10
2019-03-28T22:02:46.814Z,2.40
2019-03-28T22:05:15.776Z,2.67
2019-03-28T22:07:44.616Z,2.10
2019-03-28T22:10:13.693Z,3.27
2019-03-28T22:12:42.534Z,2.27
2019-03-28T22:15:11.689Z,2.50
2019-03-28T22:17:41.866Z,2.40
2019-03-28T22:20:10.884Z,2.83
2019-03-28T22:22:43.215Z,2.37
2019-03-28T22:25:11.361Z,2.22
2019-03-28T22:27:40.209Z,2.65
2019-03-28T22:30:09.748Z,2.95
2019-03-28T22:32:38.623Z,2.58
2019-03-28T22:35:08.008Z,2.22
2019-03-28T22:37:36.857Z,2.50
2019-03-28T22:40:11.988Z,2.60
2019-03-28T22:42:40.883Z,3.15
2019-03-28T22:45:10.296Z,2.77
2019-03-28T22:47:39.156Z,3.50
2019-03-28T22:50:08.407Z,2.90
2019-03-28T22:52:37.269Z,2.58
2019-03-28T22:55:09.488Z,2.20
2019-03-28T22:57:38.345Z,2.30
2019-03-28T23:00:09.754Z,2.65
2019-03-28T23:02:38.633Z,2.40
2019-03-28T23:05:09.172Z,2.60
2019-03-28T23:07:38.620Z,3.15
2019-03-28T23:10:09.971Z,2.70
2019-03-28T23:12:38.827Z,4.03
2019-03-28T23:15:10.794Z,2.60
2019-03-28T23:17:39.817Z,2.50
2019-03-28T23:20:11.995Z,2.30
2019-03-28T23:22:40.842Z,2.20
2019-03-28T23:25:10.839Z,2.60
2019-03-28T23:27:39.932Z,2.12
2019-03-28T23:30:09.374Z,2.60
2019-03-28T23:32:38.899Z,2.80
2019-03-28T23:35:08.477Z,2.85
2019-03-28T23:37:37.326Z,2.70
2019-03-28T23:40:07.083Z,2.40
2019-03-28T23:42:35.921Z,2.70
2019-03-28T23:45:07.340Z,2.33
2019-03-28T23:47:36.208Z,3.13
2019-03-28T23:50:07.101Z,3.55
2019-03-28T23:52:36.192Z,3.27
2019-03-28T23:55:07.334Z,3.33
2019-03-28T23:57:36.173Z,3.25
